Time;durP1;ratioP1;P1;durP2;ratioP2;P2;SDS_P1;SDS_P2;PMS_P1;PMS_P2;Temp;Humidity;BMP_temperature;BMP_pressure;BME280_temperature;BME280_humidity;BME280_pressure;Samples;Min_cycle;Max_cycle;Signal;HPM_P1;HPM_P2
2023/08/25 00:01:44;;;;;;;49.47;38.70;;;22.90;99.90;;;;;;5050025;28;20614;-68
2023/08/25 00:04:09;;;;;;;55.95;42.85;;;23.00;99.90;;;;;;5051126;28;20041;-68
2023/08/25 00:06:35;;;;;;;45.92;37.72;;;23.00;99.90;;;;;;5050325;28;20032;-68
2023/08/25 00:09:00;;;;;;;47.85;37.80;;;22.50;99.90;;;;;;5033402;28;20037;-68
2023/08/25 00:11:26;;;;;;;46.10;39.25;;;22.80;99.90;;;;;;5051305;28;20095;-68
2023/08/25 00:13:52;;;;;;;53.92;41.05;;;22.80;99.90;;;;;;5050951;28;20075;-68
2023/08/25 00:16:17;;;;;;;47.15;36.97;;;23.10;99.90;;;;;;5051712;28;20483;-68
2023/08/25 00:18:43;;;;;;;48.22;40.72;;;23.10;99.90;;;;;;5051064;28;20041;-68
2023/08/25 00:21:08;;;;;;;49.83;41.85;;;23.20;99.90;;;;;;5050027;28;20388;-68
2023/08/25 00:23:34;;;;;;;55.08;41.53;;;23.50;99.90;;;;;;5049859;28;20080;-68
2023/08/25 00:26:00;;;;;;;45.97;38.60;;;23.30;99.90;;;;;;5051091;28;20033;-69
2023/08/25 00:28:25;;;;;;;47.90;39.53;;;23.20;99.90;;;;;;5049840;28;20094;-68
2023/08/25 00:30:53;;;;;;;45.22;37.72;;;23.40;99.90;;;;;;5050091;28;20382;-68
2023/08/25 00:33:18;;;;;;;47.20;39.00;;;22.60;99.90;;;;;;5051001;28;20071;-68
2023/08/25 00:35:44;;;;;;;51.65;41.47;;;22.90;99.90;;;;;;5049608;28;20300;-68
2023/08/25 00:38:09;;;;;;;56.53;42.50;;;23.20;99.90;;;;;;5049888;28;20044;-68
2023/08/25 00:40:38;;;;;;;45.78;38.28;;;22.70;99.90;;;;;;5051108;28;20400;-68
2023/08/25 00:43:04;;;;;;;51.85;40.45;;;22.70;99.90;;;;;;5051004;28;20029;-68
2023/08/25 00:45:32;;;;;;;51.35;40.45;;;22.90;99.90;;;;;;5049532;28;20159;-68
2023/08/25 00:47:58;;;;;;;52.08;40.63;;;22.50;99.90;;;;;;5051194;28;20194;-69
2023/08/25 00:50:24;;;;;;;53.50;40.65;;;22.60;99.90;;;;;;5054798;28;20040;-68
2023/08/25 00:52:50;;;;;;;55.67;41.00;;;22.20;99.90;;;;;;5053188;28;20055;-68
2023/08/25 00:55:16;;;;;;;52.35;38.30;;;23.10;99.90;;;;;;5053107;28;20037;-68
2023/08/25 00:57:41;;;;;;;50.72;37.92;;;22.50;99.90;;;;;;5053283;28;20420;-68
2023/08/25 01:00:10;;;;;;;51.75;38.38;;;22.60;99.90;;;;;;5053152;28;20045;-68
2023/08/25 01:02:36;;;;;;;50.85;38.45;;;23.00;99.90;;;;;;5053065;28;20029;-68
2023/08/25 01:05:03;;;;;;;49.03;36.10;;;23.90;99.90;;;;;;5052980;28;20159;-68
2023/08/25 01:07:29;;;;;;;48.20;35.25;;;23.00;99.90;;;;;;5053237;28;20048;-68
2023/08/25 01:09:54;;;;;;;47.10;35.05;;;22.50;99.90;;;;;;5052977;28;20048;-68
2023/08/25 01:12:36;;;;;;;50.63;35.70;;;22.30;99.90;;;;;;5054028;28;20124;-68
2023/08/25 01:15:21;;;;;;;47.33;36.45;;;22.60;99.90;;;;;;5052647;28;20051;-68
2023/08/25 01:17:58;;;;;;;50.38;37.03;;;23.20;99.90;;;;;;5054304;28;20048;-68
2023/08/25 01:20:26;;;;;;;49.85;36.30;;;22.80;99.90;;;;;;5052814;28;20048;-68
2023/08/25 01:23:22;;;;;;;53.47;38.80;;;22.20;99.90;;;;;;5052873;28;20090;-68
2023/08/25 01:25:49;;;;;;;46.10;33.35;;;22.70;99.90;;;;;;5053836;28;20041;-69
2023/08/25 01:28:15;;;;;;;51.53;35.83;;;22.40;99.90;;;;;;5052654;28;20052;-67
2023/08/25 01:30:40;;;;;;;49.13;34.63;;;22.80;99.90;;;;;;5035962;28;20037;-67
2023/08/25 01:33:06;;;;;;;57.35;38.72;;;22.30;99.90;;;;;;5052536;28;20041;-68
2023/08/25 01:35:39;;;;;;;51.45;36.72;;;22.30;99.90;;;;;;5053699;28;20029;-67
2023/08/25 01:38:13;;;;;;;59.15;39.83;;;22.70;99.90;;;;;;5052432;28;20052;-68
2023/08/25 01:40:43;;;;;;;49.85;36.45;;;22.80;99.90;;;;;;5052487;28;20045;-68
2023/08/25 01:43:11;;;;;;;50.92;37.70;;;21.90;99.90;;;;;;5052315;28;20424;-68
2023/08/25 01:45:36;;;;;;;52.42;37.75;;;22.30;99.90;;;;;;5052426;28;20040;-68
2023/08/25 01:48:06;;;;;;;49.00;36.35;;;22.50;99.90;;;;;;5052392;28;20085;-68
2023/08/25 01:50:34;;;;;;;50.15;37.20;;;22.20;99.90;;;;;;5052503;28;20045;-68
2023/08/25 01:53:01;;;;;;;48.45;34.35;;;22.80;99.90;;;;;;5035391;28;20120;-68
2023/08/25 01:55:27;;;;;;;50.03;36.88;;;22.70;99.90;;;;;;5052005;28;20045;-68
2023/08/25 01:57:53;;;;;;;51.58;36.13;;;22.40;99.90;;;;;;5053511;28;20435;-68
2023/08/25 02:00:19;;;;;;;52.20;36.70;;;22.60;99.90;;;;;;5051384;28;20404;-68
2023/08/25 02:02:45;;;;;;;52.42;36.28;;;22.20;99.90;;;;;;5052197;28;20428;-68
2023/08/25 02:05:11;;;;;;;54.90;37.90;;;22.80;99.90;;;;;;5051706;28;20039;-68
2023/08/25 02:07:37;;;;;;;50.00;33.92;;;22.60;99.90;;;;;;5053396;28;20044;-68
2023/08/25 02:10:03;;;;;;;53.78;37.25;;;22.30;99.90;;;;;;5053458;28;20443;-68
2023/08/25 02:12:29;;;;;;;59.88;39.33;;;22.10;99.90;;;;;;5051627;28;20041;-68
2023/08/25 02:14:54;;;;;;;60.10;41.25;;;22.10;99.90;;;;;;5051864;28;20044;-67
2023/08/25 02:17:20;;;;;;;57.38;40.33;;;22.00;99.90;;;;;;5053008;28;20047;-67
2023/08/25 02:19:45;;;;;;;54.58;38.78;;;22.60;99.90;;;;;;5052795;28;20051;-67
2023/08/25 02:22:11;;;;;;;55.95;36.95;;;22.80;99.90;;;;;;5052945;28;20041;-68
2023/08/25 02:24:37;;;;;;;49.88;35.67;;;22.20;99.90;;;;;;5052835;28;20091;-67
2023/08/25 02:27:02;;;;;;;49.90;37.30;;;22.40;99.90;;;;;;5053289;28;20056;-68
2023/08/25 02:29:28;;;;;;;66.05;42.67;;;22.20;99.90;;;;;;5051477;28;20067;-68
2023/08/25 02:31:54;;;;;;;53.03;37.35;;;22.40;99.90;;;;;;5051313;28;20527;-67
2023/08/25 02:34:20;;;;;;;62.65;42.55;;;22.70;99.90;;;;;;5034470;28;20048;-67
2023/08/25 02:36:45;;;;;;;49.15;36.67;;;21.90;99.90;;;;;;5051351;28;20040;-67
2023/08/25 02:39:12;;;;;;;53.80;36.60;;;22.80;99.90;;;;;;5052499;28;20517;-68
2023/08/25 02:41:37;;;;;;;59.17;41.97;;;22.10;99.90;;;;;;5051116;28;20037;-68
2023/08/25 02:44:03;;;;;;;62.28;44.08;;;22.80;99.90;;;;;;5052442;28;20033;-68
2023/08/25 02:46:28;;;;;;;61.83;43.97;;;21.80;99.90;;;;;;5052511;28;20033;-68
2023/08/25 02:48:54;;;;;;;55.20;40.47;;;22.20;99.90;;;;;;5051270;28;20385;-68
2023/08/25 02:51:20;;;;;;;62.80;42.67;;;21.90;99.90;;;;;;5052239;28;20083;-68
2023/08/25 02:53:45;;;;;;;52.47;37.40;;;22.60;99.90;;;;;;5050835;28;20036;-67
2023/08/25 02:56:11;;;;;;;56.10;42.40;;;22.40;99.90;;;;;;5051597;28;20032;-67
2023/08/25 02:58:36;;;;;;;69.10;46.95;;;22.50;99.90;;;;;;5051075;28;20087;-67
2023/08/25 03:01:13;;;;;;;58.60;43.42;;;22.60;99.90;;;;;;5052185;28;20044;-67
2023/08/25 03:03:39;;;;;;;74.50;49.17;;;22.50;99.90;;;;;;5050800;28;20112;-67
2023/08/25 03:06:05;;;;;;;59.60;42.97;;;21.80;99.90;;;;;;5034002;28;20120;-68
2023/08/25 03:08:30;;;;;;;55.75;41.78;;;21.80;99.90;;;;;;5051042;28;20040;-68
2023/08/25 03:10:56;;;;;;;69.88;46.25;;;22.20;99.90;;;;;;5050675;28;20040;-68
2023/08/25 03:13:21;;;;;;;60.55;43.97;;;22.00;99.90;;;;;;5049563;28;20048;-68
2023/08/25 03:15:52;;;;;;;73.63;49.50;;;22.40;99.90;;;;;;5050502;28;20065;-68
2023/08/25 03:18:17;;;;;;;58.53;43.33;;;21.90;99.90;;;;;;5052145;28;20128;-67
2023/08/25 03:20:43;;;;;;;59.42;43.50;;;22.40;99.90;;;;;;5050762;28;20120;-67
2023/08/25 03:23:09;;;;;;;82.45;48.83;;;22.20;99.90;;;;;;5050581;28;20044;-68
2023/08/25 03:25:38;;;;;;;61.47;43.72;;;22.50;99.90;;;;;;5050335;28;20123;-68
2023/08/25 03:28:04;;;;;;;65.30;45.85;;;21.90;99.90;;;;;;5051660;28;20558;-67
2023/08/25 03:30:30;;;;;;;79.50;49.85;;;22.30;99.90;;;;;;5051674;28;20048;-67
2023/08/25 03:32:55;;;;;;;71.45;47.67;;;22.00;99.90;;;;;;5050336;28;20041;-67
2023/08/25 03:35:21;;;;;;;82.25;50.20;;;22.00;99.90;;;;;;5050194;28;20079;-68
2023/08/25 03:37:46;;;;;;;72.18;46.33;;;22.30;99.90;;;;;;5050338;28;20097;-68
2023/08/25 03:40:12;;;;;;;61.15;43.45;;;22.20;99.90;;;;;;5050270;28;20053;-67
2023/08/25 03:42:38;;;;;;;59.15;42.13;;;22.60;99.90;;;;;;5051510;28;20033;-68
2023/08/25 03:45:06;;;;;;;93.20;50.55;;;22.50;99.90;;;;;;5050248;28;20070;-68
2023/08/25 03:47:31;;;;;;;65.32;44.42;;;22.50;99.90;;;;;;5050565;28;20048;-68
2023/08/25 03:49:57;;;;;;;62.45;42.92;;;22.70;99.90;;;;;;5050159;28;20048;-67
2023/08/25 03:52:23;;;;;;;78.85;47.75;;;22.00;99.90;;;;;;5050209;28;20041;-68
2023/08/25 03:54:48;;;;;;;70.35;46.83;;;22.60;99.90;;;;;;5050262;28;20037;-68
2023/08/25 03:57:14;;;;;;;75.63;48.65;;;22.50;99.90;;;;;;5050160;28;20045;-67
2023/08/25 03:59:40;;;;;;;72.55;45.38;;;22.50;99.90;;;;;;5049941;28;20033;-67
2023/08/25 04:02:05;;;;;;;73.80;46.92;;;22.10;99.90;;;;;;5050027;28;20506;-68
2023/08/25 04:04:34;;;;;;;71.85;44.78;;;22.00;99.90;;;;;;5051323;28;20123;-68
2023/08/25 04:07:00;;;;;;;72.32;45.40;;;22.00;99.90;;;;;;5051353;28;20041;-68
2023/08/25 04:09:25;;;;;;;76.70;48.35;;;22.80;99.90;;;;;;5050310;28;20450;-68
2023/08/25 04:14:21;;;;;;;72.28;44.80;;;22.60;99.90;;;;;;5070624;22;20471;-75
2023/08/25 04:16:49;;;;;;;74.90;45.50;;;22.20;99.90;;;;;;5034148;28;20041;-75
2023/08/25 04:19:16;;;;;;;73.10;46.50;;;21.80;99.90;;;;;;5051775;28;20500;-75
2023/08/25 04:21:43;;;;;;;72.65;45.97;;;19.80;99.90;;;;;;5033844;28;20041;-75
2023/08/25 04:24:12;;;;;;;67.32;44.50;;;22.30;99.90;;;;;;5034988;28;20080;-76
2023/08/25 04:26:38;;;;;;;71.50;45.10;;;22.60;99.90;;;;;;5054981;28;20072;-75
2023/08/25 04:29:06;;;;;;;77.45;48.28;;;22.50;99.90;;;;;;5037157;28;20049;-75
2023/08/25 04:31:32;;;;;;;75.75;47.35;;;22.40;99.90;;;;;;5037406;28;20088;-75
2023/08/25 04:33:58;;;;;;;84.70;49.30;;;22.30;99.90;;;;;;5055025;28;20032;-76
2023/08/25 04:36:24;;;;;;;88.53;50.25;;;22.30;99.90;;;;;;5037882;28;20048;-76
2023/08/25 04:38:50;;;;;;;85.55;50.67;;;22.50;99.90;;;;;;5037541;28;20041;-76
2023/08/25 04:41:16;;;;;;;83.00;50.72;;;;;;;;;;5020788;28;20385;-76
2023/08/25 04:43:42;;;;;;;77.53;48.38;;;22.80;99.90;;;;;;5037535;28;20033;-76
2023/08/25 04:46:08;;;;;;;90.05;51.78;;;22.10;99.90;;;;;;5020887;28;20045;-75
2023/08/25 04:48:34;;;;;;;76.40;48.03;;;21.90;99.90;;;;;;5037709;28;20036;-76
2023/08/25 04:51:02;;;;;;;87.72;50.88;;;21.80;99.90;;;;;;5021171;28;20044;-75
2023/08/25 04:53:28;;;;;;;87.80;50.92;;;22.00;99.90;;;;;;5037419;28;20041;-76
2023/08/25 04:55:57;;;;;;;81.95;49.28;;;22.00;99.90;;;;;;5036935;28;20571;-75
2023/08/25 04:58:26;;;;;;;83.28;48.10;;;23.20;99.90;;;;;;5021316;28;20036;-76
2023/08/25 05:00:53;;;;;;;94.70;54.08;;;22.50;99.90;;;;;;5037423;28;20420;-75
2023/08/25 05:03:23;;;;;;;84.90;51.10;;;22.40;99.90;;;;;;5037236;28;20416;-75
2023/08/25 05:05:49;;;;;;;82.60;47.28;;;22.20;99.90;;;;;;5037200;28;20064;-75
2023/08/25 05:08:15;;;;;;;86.18;50.92;;;22.40;99.90;;;;;;5020801;28;20040;-76
2023/08/25 05:10:41;;;;;;;92.45;53.40;;;;;;;;;;5020823;28;20062;-76
2023/08/25 05:13:07;;;;;;;86.95;52.25;;;22.80;99.90;;;;;;5020444;28;20436;-76
2023/08/25 05:15:33;;;;;;;87.63;50.97;;;21.20;99.90;;;;;;5037172;28;20131;-76
2023/08/25 05:17:59;;;;;;;98.13;53.47;;;21.80;99.90;;;;;;5037150;28;20049;-76
2023/08/25 05:20:25;;;;;;;91.30;51.83;;;22.50;99.90;;;;;;5019902;28;20056;-76
2023/08/25 05:22:56;;;;;;;88.38;51.75;;;22.80;99.90;;;;;;5019760;28;20041;-76
2023/08/25 05:25:25;;;;;;;105.93;55.20;;;23.00;99.90;;;;;;5020129;28;20098;-76
2023/08/25 05:27:50;;;;;;;87.13;53.60;;;22.60;99.90;;;;;;5036433;28;20037;-76
2023/08/25 05:30:16;;;;;;;88.47;51.70;;;22.60;99.90;;;;;;5020648;28;20413;-76
2023/08/25 05:32:45;;;;;;;91.30;53.10;;;22.80;99.90;;;;;;5054334;28;20412;-76
2023/08/25 05:35:11;;;;;;;88.10;52.80;;;22.30;99.90;;;;;;5035662;28;20112;-75
2023/08/25 05:37:40;;;;;;;89.50;50.58;;;22.10;99.90;;;;;;5019315;28;20041;-76
2023/08/25 05:40:07;;;;;;;104.82;55.58;;;22.70;99.90;;;;;;5019366;28;20523;-75
2023/08/25 05:42:33;;;;;;;109.18;56.28;;;23.10;99.90;;;;;;5019641;28;20037;-76
2023/08/25 05:44:59;;;;;;;97.95;57.67;;;23.30;99.90;;;;;;5019380;28;20045;-76
2023/08/25 05:47:25;;;;;;;98.55;55.20;;;;;;;;;;5036066;28;20040;-76
2023/08/25 05:49:54;;;;;;;100.60;58.33;;;22.70;99.90;;;;;;5019704;28;20041;-76
2023/08/25 05:52:20;;;;;;;92.38;53.13;;;23.20;99.90;;;;;;5020003;28;20051;-76
2023/08/25 05:54:49;;;;;;;97.15;55.92;;;22.30;99.90;;;;;;5036083;28;20048;-75
2023/08/25 05:57:15;;;;;;;101.32;56.20;;;22.20;99.90;;;;;;5019785;28;20076;-75
2023/08/25 05:59:41;;;;;;;98.32;57.33;;;23.00;99.90;;;;;;5053850;28;20083;-75
2023/08/25 06:02:07;;;;;;;104.95;59.60;;;22.30;99.90;;;;;;5053849;28;20037;-75
2023/08/25 06:04:33;;;;;;;105.65;59.28;;;22.90;99.90;;;;;;5036000;28;20044;-75
2023/08/25 06:06:58;;;;;;;95.22;55.20;;;22.40;99.90;;;;;;5053044;28;20049;-76
2023/08/25 06:09:24;;;;;;;106.53;61.47;;;23.10;99.90;;;;;;5035976;28;20067;-75
2023/08/25 06:11:50;;;;;;;93.43;56.75;;;23.30;99.90;;;;;;5036057;28;20036;-76
2023/08/25 06:14:21;;;;;;;105.78;61.90;;;22.60;99.90;;;;;;5053454;28;20036;-76
2023/08/25 06:16:46;;;;;;;98.03;58.47;;;23.20;99.90;;;;;;5019532;28;20518;-76
2023/08/25 06:19:14;;;;;;;100.18;58.30;;;22.40;99.90;;;;;;5035589;28;20037;-76
2023/08/25 06:21:39;;;;;;;102.53;60.00;;;23.10;99.90;;;;;;5035787;28;20041;-75
2023/08/25 06:24:05;;;;;;;99.35;58.28;;;22.60;99.90;;;;;;5035801;28;20127;-75
2023/08/25 06:26:31;;;;;;;108.40;59.65;;;22.60;99.90;;;;;;5035544;28;20041;-76
2023/08/25 06:28:57;;;;;;;96.93;62.13;;;23.30;99.90;;;;;;5035708;28;20067;-76
2023/08/25 06:31:23;;;;;;;93.70;57.97;;;;;;;;;;5053119;28;20037;-76
2023/08/25 06:33:49;;;;;;;87.85;55.55;;;22.70;99.90;;;;;;5018790;28;20051;-76
2023/08/25 06:36:18;;;;;;;83.57;52.25;;;23.30;99.90;;;;;;5035732;28;20037;-76
2023/08/25 06:38:44;;;;;;;84.50;50.47;;;23.50;99.90;;;;;;5035196;28;20041;-76
2023/08/25 06:41:13;;;;;;;78.88;50.42;;;22.70;99.90;;;;;;5034979;28;20036;-75
2023/08/25 06:43:39;;;;;;;75.90;48.45;;;23.00;99.90;;;;;;5034766;28;20041;-75
2023/08/25 06:46:04;;;;;;;67.47;47.03;;;22.60;99.90;;;;;;5018008;28;20037;-75
2023/08/25 06:48:30;;;;;;;79.05;50.83;;;22.70;99.90;;;;;;5034855;28;20052;-76
2023/08/25 06:50:56;;;;;;;74.57;48.65;;;22.60;99.90;;;;;;5053020;28;20040;-76
2023/08/25 06:53:22;;;;;;;72.50;49.15;;;23.60;99.90;;;;;;5035131;28;20041;-76
2023/08/25 06:55:48;;;;;;;72.28;48.03;;;25.30;99.90;;;;;;5034966;28;20041;-76
2023/08/25 06:58:14;;;;;;;63.00;43.38;;;23.50;99.90;;;;;;5052762;28;20048;-76
2023/08/25 07:00:40;;;;;;;70.90;45.53;;;23.40;99.90;;;;;;5052825;28;20041;-76
2023/08/25 07:03:07;;;;;;;66.43;45.65;;;23.00;99.90;;;;;;5052822;28;20041;-76
2023/08/25 07:05:37;;;;;;;69.47;47.08;;;21.40;99.90;;;;;;5034742;28;20045;-75
2023/08/25 07:08:05;;;;;;;69.13;48.22;;;23.30;99.90;;;;;;5034937;28;20087;-76
2023/08/25 07:10:31;;;;;;;65.47;46.85;;;22.70;99.90;;;;;;5034581;28;20052;-77
2023/08/25 07:12:57;;;;;;;68.70;45.63;;;23.20;99.90;;;;;;5052088;28;20120;-76
2023/08/25 07:15:23;;;;;;;69.40;45.65;;;23.50;99.90;;;;;;5034765;28;20171;-76
2023/08/25 07:17:48;;;;;;;61.33;43.10;;;23.20;99.90;;;;;;5035069;28;20048;-76
2023/08/25 07:20:17;;;;;;;69.03;44.85;;;22.50;99.90;;;;;;5018244;28;20041;-76
2023/08/25 07:22:46;;;;;;;66.72;45.47;;;22.80;99.90;;;;;;5034600;28;20040;-76
2023/08/25 07:25:13;;;;;;;63.50;42.95;;;23.20;99.90;;;;;;5052368;28;20411;-78
2023/08/25 07:27:41;;;;;;;59.50;40.88;;;23.20;99.90;;;;;;5018369;28;20041;-76
2023/08/25 07:30:07;;;;;;;57.47;39.35;;;23.10;99.90;;;;;;5034245;28;20051;-75
2023/08/25 07:32:33;;;;;;;51.80;37.22;;;23.10;99.90;;;;;;5034470;28;20037;-76
2023/08/25 07:34:59;;;;;;;51.85;37.03;;;23.20;99.90;;;;;;5034437;28;20143;-76
2023/08/25 07:37:27;;;;;;;48.85;37.08;;;21.20;99.90;;;;;;5034257;28;20040;-75
2023/08/25 07:39:54;;;;;;;47.35;35.35;;;22.70;99.90;;;;;;5034242;28;20076;-76
2023/08/25 07:42:22;;;;;;;47.33;33.35;;;23.30;99.90;;;;;;5034156;28;20055;-76
2023/08/25 07:44:49;;;;;;;47.13;33.75;;;23.20;99.90;;;;;;5034115;28;20567;-76
2023/08/25 07:47:15;;;;;;;48.88;32.63;;;23.80;99.90;;;;;;5034513;28;20120;-76
2023/08/25 07:49:43;;;;;;;47.22;32.92;;;22.90;99.90;;;;;;5034458;28;20041;-76
2023/08/25 07:52:09;;;;;;;44.03;32.25;;;23.00;99.90;;;;;;5052021;28;20052;-76
2023/08/25 07:54:35;;;;;;;50.78;31.33;;;22.80;99.90;;;;;;5034481;28;20075;-76
2023/08/25 07:57:01;;;;;;;44.38;29.42;;;;;;;;;;5052102;28;20040;-76
2023/08/25 07:59:34;;;;;;;43.42;27.73;;;23.10;99.90;;;;;;5036717;28;20037;-76
2023/08/25 08:02:02;;;;;;;38.05;25.48;;;22.80;99.90;;;;;;5038275;28;20037;-76
2023/08/25 08:04:33;;;;;;;39.20;25.27;;;24.00;99.90;;;;;;5021875;28;20055;-77
2023/08/25 08:07:02;;;;;;;32.17;25.30;;;23.30;99.90;;;;;;5038212;28;20045;-76
2023/08/25 08:09:28;;;;;;;34.80;24.58;;;23.40;99.90;;;;;;5038389;28;20037;-77
2023/08/25 08:11:57;;;;;;;33.50;24.58;;;20.90;99.90;;;;;;5021853;28;20036;-76
2023/08/25 08:14:23;;;;;;;35.38;22.92;;;23.00;99.90;;;;;;5037949;28;20064;-76
2023/08/25 08:16:52;;;;;;;33.60;23.50;;;;;;;;;;5021586;28;20045;-76
2023/08/25 08:19:18;;;;;;;32.92;23.70;;;23.00;99.90;;;;;;5038114;28;20578;-76
2023/08/25 08:21:44;;;;;;;35.63;24.77;;;22.90;99.90;;;;;;5021815;28;20080;-78
2023/08/25 08:24:10;;;;;;;35.25;25.52;;;;;;;;;;5021203;28;20072;-76
2023/08/25 08:26:36;;;;;;;34.08;24.45;;;23.00;99.90;;;;;;5038504;28;20150;-76
2023/08/25 08:29:02;;;;;;;31.05;24.05;;;23.30;99.90;;;;;;5021185;28;20044;-76
2023/08/25 08:31:29;;;;;;;39.22;24.13;;;;;;;;;;5021349;28;20045;-76
2023/08/25 08:33:58;;;;;;;38.60;25.10;;;23.60;99.90;;;;;;5021415;28;20098;-76
2023/08/25 08:36:29;;;;;;;37.83;24.40;;;23.30;99.90;;;;;;5021185;28;20048;-76
2023/08/25 08:38:54;;;;;;;35.58;24.83;;;23.90;99.90;;;;;;5020910;28;20049;-76
2023/08/25 08:41:21;;;;;;;29.48;23.88;;;23.90;99.90;;;;;;5039036;28;20119;-77
2023/08/25 08:43:52;;;;;;;29.88;22.92;;;24.10;99.90;;;;;;5039210;28;20033;-77
2023/08/25 08:46:18;;;;;;;33.20;23.48;;;24.00;99.90;;;;;;5039127;28;20044;-77
2023/08/25 08:48:45;;;;;;;33.08;22.98;;;24.50;99.90;;;;;;5038824;28;20037;-77
2023/08/25 08:51:14;;;;;;;33.80;22.85;;;24.30;99.90;;;;;;5022509;28;20037;-77
2023/08/25 08:53:41;;;;;;;32.22;21.77;;;24.00;99.90;;;;;;5022570;28;20084;-77
2023/08/25 08:56:08;;;;;;;33.03;23.60;;;21.90;99.90;;;;;;5022147;28;20041;-77
2023/08/25 08:58:42;;;;;;;33.63;20.73;;;23.90;99.90;;;;;;5022390;28;20400;-76
2023/08/25 09:01:10;;;;;;;34.67;23.35;;;23.40;99.90;;;;;;5020557;28;20044;-77
2023/08/25 09:03:41;;;;;;;31.08;21.35;;;24.40;99.90;;;;;;5020692;28;20041;-76
2023/08/25 09:06:07;;;;;;;30.30;23.65;;;23.30;99.90;;;;;;5021079;28;20049;-76
2023/08/25 09:08:39;;;;;;;40.90;24.20;;;24.40;99.90;;;;;;5022389;28;20048;-77
2023/08/25 09:11:08;;;;;;;34.05;23.48;;;24.10;99.90;;;;;;5022443;28;20040;-77
2023/08/25 09:13:35;;;;;;;31.92;24.27;;;25.30;99.90;;;;;;5037478;28;20048;-74
2023/08/25 09:16:12;;;;;;;30.58;24.02;;;24.30;99.90;;;;;;5020570;28;20059;-75
2023/08/25 09:18:42;;;;;;;37.65;24.42;;;24.60;99.90;;;;;;5037280;28;20043;-75
2023/08/25 09:21:21;;;;;;;34.20;25.55;;;24.40;99.90;;;;;;5020905;28;20452;-75
2023/08/25 09:23:54;;;;;;;33.88;25.15;;;24.30;99.90;;;;;;5036752;28;20381;-74
2023/08/25 09:26:23;;;;;;;35.25;24.02;;;24.80;99.90;;;;;;5054466;28;20045;-75
2023/08/25 09:28:53;;;;;;;30.85;23.02;;;25.50;99.90;;;;;;5036767;28;20041;-75
2023/08/25 09:31:24;;;;;;;36.67;23.20;;;24.70;99.90;;;;;;5036946;28;20380;-76
2023/08/25 09:33:54;;;;;;;35.90;23.75;;;24.90;99.90;;;;;;5020144;28;20041;-75
2023/08/25 09:36:21;;;;;;;36.90;23.55;;;24.70;99.90;;;;;;5020595;28;20084;-74
2023/08/25 09:38:57;;;;;;;36.88;25.17;;;24.20;99.90;;;;;;5020818;28;20036;-75
2023/08/25 09:41:28;;;;;;;36.33;24.30;;;24.00;99.90;;;;;;5037813;28;20047;-77
2023/08/25 09:44:04;;;;;;;26.80;19.42;;;24.30;99.90;;;;;;5019992;28;20092;-75
2023/08/25 09:46:32;;;;;;;31.75;24.05;;;21.90;99.90;;;;;;5020103;28;20484;-75
2023/08/25 09:49:07;;;;;;;35.85;23.80;;;24.80;99.90;;;;;;5019881;28;20040;-75
2023/08/25 09:51:42;;;;;;;30.83;22.27;;;24.40;99.90;;;;;;5019883;28;20045;-75
2023/08/25 09:54:10;;;;;;;31.77;22.52;;;24.80;99.90;;;;;;5020056;28;20253;-75
2023/08/25 09:56:37;;;;;;;31.10;23.23;;;24.60;99.90;;;;;;5019985;28;20044;-76
2023/08/25 09:59:04;;;;;;;38.55;25.55;;;24.50;99.90;;;;;;5019755;28;20060;-75
2023/08/25 10:01:32;;;;;;;42.65;26.90;;;22.10;99.90;;;;;;5020217;28;20098;-76
2023/08/25 10:03:59;;;;;;;33.10;24.83;;;24.70;99.90;;;;;;5036030;28;20055;-77
2023/08/25 10:06:28;;;;;;;35.47;26.33;;;24.30;99.90;;;;;;5035971;28;20081;-75
2023/08/25 10:08:55;;;;;;;31.42;22.85;;;23.60;99.90;;;;;;5036237;28;20492;-75
2023/08/25 10:11:25;;;;;;;35.88;24.25;;;25.00;99.90;;;;;;5019529;28;20056;-75
2023/08/25 10:13:55;;;;;;;35.97;24.67;;;24.80;99.90;;;;;;5040990;23;20045;-68
2023/08/25 10:16:27;;;;;;;35.72;25.17;;;24.90;99.90;;;;;;5035333;28;20045;-68
2023/08/25 10:18:56;;;;;;;40.37;27.63;;;24.90;99.90;;;;;;5035463;28;20072;-68
2023/08/25 10:21:23;;;;;;;35.60;24.38;;;25.00;99.90;;;;;;5035608;28;20052;-69
2023/08/25 10:23:54;;;;;;;33.47;23.75;;;24.70;99.90;;;;;;5052911;28;20043;-68
2023/08/25 10:26:22;;;;;;;38.10;27.38;;;25.30;99.90;;;;;;5053039;28;20404;-68
2023/08/25 10:28:48;;;;;;;31.45;23.90;;;25.20;99.90;;;;;;5018713;28;20471;-68
2023/08/25 10:31:14;;;;;;;33.70;25.30;;;25.30;99.90;;;;;;5018334;28;20045;-68
2023/08/25 10:33:47;;;;;;;36.42;25.50;;;25.30;99.90;;;;;;5035189;28;20037;-68
2023/08/25 10:36:22;;;;;;;30.85;22.38;;;25.20;99.90;;;;;;5052650;28;20033;-68
2023/08/25 10:38:54;;;;;;;43.03;25.85;;;26.00;99.90;;;;;;5034831;28;20047;-68
2023/08/25 10:41:21;;;;;;;37.40;26.00;;;25.50;99.90;;;;;;5034887;28;20124;-69
2023/08/25 10:43:53;;;;;;;36.70;26.38;;;25.50;99.90;;;;;;5018011;28;20056;-67
2023/08/25 10:46:20;;;;;;;35.57;26.53;;;25.60;99.90;;;;;;5035033;28;20500;-68
2023/08/25 10:48:50;;;;;;;38.65;27.85;;;25.50;99.90;;;;;;5034584;28;20106;-68
2023/08/25 10:51:16;;;;;;;38.33;25.70;;;25.50;99.90;;;;;;5052806;28;20075;-68
2023/08/25 10:53:52;;;;;;;36.47;28.13;;;25.40;99.90;;;;;;5052604;28;20489;-69
2023/08/25 10:56:18;;;;;;;39.55;27.77;;;25.70;99.90;;;;;;5034341;28;20047;-68
2023/08/25 10:59:11;;;;;;;40.53;28.50;;;25.80;99.90;;;;;;5034943;28;20431;-68
2023/08/25 11:01:37;;;;;;;42.67;28.55;;;25.20;99.90;;;;;;5034636;28;20045;-69
2023/08/25 11:04:12;;;;;;;33.50;24.65;;;25.20;99.90;;;;;;5052181;28;20047;-69
2023/08/25 11:06:45;;;;;;;34.55;25.63;;;25.10;99.90;;;;;;5034753;28;20033;-68
2023/08/25 11:09:20;;;;;;;40.05;26.42;;;25.40;99.90;;;;;;5034746;28;20036;-68
2023/08/25 11:11:54;;;;;;;42.05;28.05;;;25.50;99.90;;;;;;5052515;28;20075;-68
2023/08/25 11:14:20;;;;;;;41.15;28.75;;;25.70;99.90;;;;;;5034373;28;20037;-68
2023/08/25 11:16:47;;;;;;;35.88;27.35;;;25.80;99.90;;;;;;5034094;28;20168;-67
2023/08/25 11:19:16;;;;;;;40.90;29.42;;;25.80;99.90;;;;;;5051812;28;20044;-68
2023/08/25 11:21:41;;;;;;;37.42;26.38;;;26.10;99.90;;;;;;5034050;28;20115;-68
2023/08/25 11:24:07;;;;;;;42.33;28.67;;;26.10;99.90;;;;;;5034043;28;20441;-68
2023/08/25 11:26:34;;;;;;;39.92;27.90;;;26.40;99.90;;;;;;5034080;28;20331;-69
2023/08/25 11:29:01;;;;;;;40.53;28.83;;;26.40;99.90;;;;;;5051702;28;20500;-68
2023/08/25 11:31:27;;;;;;;42.05;30.70;;;26.10;99.90;;;;;;5051620;28;20041;-68
2023/08/25 11:33:54;;;;;;;39.92;29.17;;;25.80;99.90;;;;;;5050580;28;20048;-68
2023/08/25 11:36:24;;;;;;;36.65;29.02;;;26.30;99.90;;;;;;5051643;28;20530;-68
2023/08/25 11:38:51;;;;;;;43.70;31.65;;;26.20;99.90;;;;;;5033889;28;20396;-68
2023/08/25 11:41:18;;;;;;;40.15;30.55;;;26.00;99.90;;;;;;5017415;28;20408;-68
2023/08/25 11:43:47;;;;;;;41.17;30.45;;;26.00;99.90;;;;;;5051550;28;20040;-68
2023/08/25 11:46:14;;;;;;;40.83;30.83;;;26.40;99.90;;;;;;5051476;28;20043;-68
2023/08/25 11:48:40;;;;;;;43.17;32.90;;;26.30;99.90;;;;;;5051744;28;20041;-68
2023/08/25 11:51:10;;;;;;;45.55;31.90;;;26.10;99.90;;;;;;5051542;28;20037;-68
2023/08/25 11:53:36;;;;;;;47.50;32.63;;;26.30;99.90;;;;;;5051598;28;20033;-68
2023/08/25 11:56:06;;;;;;;43.85;32.38;;;25.90;99.90;;;;;;5034004;28;20511;-69
2023/08/25 11:58:36;;;;;;;41.90;31.63;;;26.10;99.90;;;;;;5034310;28;20515;-68
2023/08/25 12:01:10;;;;;;;45.40;32.72;;;26.10;99.90;;;;;;5051749;28;20641;-67
2023/08/25 12:03:37;;;;;;;38.53;30.15;;;26.10;99.90;;;;;;5051459;28;20037;-68
2023/08/25 12:06:06;;;;;;;40.42;30.58;;;26.20;99.90;;;;;;5033859;28;20049;-68
2023/08/25 12:08:33;;;;;;;43.78;31.80;;;26.20;99.90;;;;;;5033591;28;20052;-68
2023/08/25 12:11:00;;;;;;;42.58;30.02;;;26.50;99.90;;;;;;5051350;28;20044;-68
2023/08/25 12:13:30;;;;;;;38.03;29.35;;;26.70;99.90;;;;;;5033243;28;20040;-68
2023/08/25 12:15:57;;;;;;;43.33;29.50;;;26.70;99.90;;;;;;5033247;28;20167;-68
2023/08/25 12:18:23;;;;;;;42.75;30.42;;;26.70;99.90;;;;;;5033423;28;20048;-68
2023/08/25 12:20:50;;;;;;;41.72;29.63;;;27.10;99.90;;;;;;5051118;28;20520;-68
2023/08/25 12:23:16;;;;;;;36.55;28.23;;;26.90;99.90;;;;;;5051122;28;20096;-68
2023/08/25 12:25:43;;;;;;;39.60;27.60;;;27.00;99.90;;;;;;5033021;28;20056;-68
2023/08/25 12:28:10;;;;;;;42.28;30.63;;;27.20;99.90;;;;;;5051068;28;20515;-68
2023/08/25 12:30:36;;;;;;;36.97;27.35;;;26.80;99.90;;;;;;5033216;28;20045;-68
2023/08/25 12:33:02;;;;;;;38.33;29.33;;;26.50;99.90;;;;;;5033095;28;20444;-68